sensor_id;sensor_type;location;lat;lon;timestamp;pressure;altitude;pressure_sealevel;temperature;humidity
84190;BME280;74321;53.406;8.146;2023-12-28T00:00:28;100611.44;;;7.18;98.53
84190;BME280;74321;53.406;8.146;2023-12-28T00:05:30;100617.41;;;7.20;98.90
84190;BME280;74321;53.406;8.146;2023-12-28T00:10:33;100633.63;;;7.33;98.21
84190;BME280;74321;53.406;8.146;2023-12-28T00:15:58;100636.22;;;7.39;97.95
84190;BME280;74321;53.406;8.146;2023-12-28T00:21:00;100556.81;;;6.76;97.26
84190;BME280;74321;53.406;8.146;2023-12-28T00:31:32;100603.94;;;7.43;94.73
84190;BME280;74321;53.406;8.146;2023-12-28T00:36:34;100619.19;;;7.30;95.31
84190;BME280;74321;53.406;8.146;2023-12-28T00:41:39;100609.78;;;7.22;95.01
84190;BME280;74321;53.406;8.146;2023-12-28T00:46:41;100611.44;;;7.20;95.38
84190;BME280;74321;53.406;8.146;2023-12-28T00:51:44;100650.69;;;7.42;94.22
84190;BME280;74321;53.406;8.146;2023-12-28T00:56:47;100674.53;;;7.48;94.47
84190;BME280;74321;53.406;8.146;2023-12-28T01:01:57;100667.72;;;7.49;93.37
84190;BME280;74321;53.406;8.146;2023-12-28T01:06:59;100644.69;;;7.35;93.47
84190;BME280;74321;53.406;8.146;2023-12-28T01:12:04;100659.13;;;7.35;93.89
84190;BME280;74321;53.406;8.146;2023-12-28T01:17:07;100654.97;;;7.47;93.05
84190;BME280;74321;53.406;8.146;2023-12-28T01:22:10;100643.84;;;7.36;93.27
84190;BME280;74321;53.406;8.146;2023-12-28T01:27:13;100684.81;;;7.68;92.17
84190;BME280;74321;53.406;8.146;2023-12-28T01:32:16;100674.47;;;7.38;93.68
84190;BME280;74321;53.406;8.146;2023-12-28T01:37:18;100667.59;;;7.30;93.29
84190;BME280;74321;53.406;8.146;2023-12-28T01:42:20;100674.47;;;7.41;92.55
84190;BME280;74321;53.406;8.146;2023-12-28T01:47:23;100682.91;;;7.33;92.94
84190;BME280;74321;53.406;8.146;2023-12-28T01:52:27;100679.50;;;7.30;94.12
84190;BME280;74321;53.406;8.146;2023-12-28T01:57:30;100658.19;;;7.22;93.52
84190;BME280;74321;53.406;8.146;2023-12-28T02:02:32;100574.69;;;6.81;92.93
84190;BME280;74321;53.406;8.146;2023-12-28T02:07:36;100709.44;;;7.60;93.10
84190;BME280;74321;53.406;8.146;2023-12-28T02:12:38;100683.81;;;7.37;94.52
84190;BME280;74321;53.406;8.146;2023-12-28T02:17:50;100597.66;;;6.89;94.34
84190;BME280;74321;53.406;8.146;2023-12-28T02:22:56;100648.88;;;7.27;93.50
84190;BME280;74321;53.406;8.146;2023-12-28T02:27:59;100669.44;;;7.50;92.49
84190;BME280;74321;53.406;8.146;2023-12-28T02:33:26;100721.44;;;7.76;92.81
84190;BME280;74321;53.406;8.146;2023-12-28T02:38:33;100734.19;;;7.72;94.02
84190;BME280;74321;53.406;8.146;2023-12-28T02:49:15;100611.38;;;7.09;94.44
84190;BME280;74321;53.406;8.146;2023-12-28T02:54:21;100711.19;;;7.67;95.00
84190;BME280;74321;53.406;8.146;2023-12-28T02:59:23;100700.97;;;7.63;95.04
84190;BME280;74321;53.406;8.146;2023-12-28T03:04:26;100671.22;;;7.62;93.52
84190;BME280;74321;53.406;8.146;2023-12-28T03:09:28;100680.50;;;7.53;95.06
84190;BME280;74321;53.406;8.146;2023-12-28T03:14:30;100596.88;;;7.02;94.88
84190;BME280;74321;53.406;8.146;2023-12-28T03:19:32;100661.78;;;7.53;94.10
84190;BME280;74321;53.406;8.146;2023-12-28T03:24:42;100585.84;;;6.97;95.20
84190;BME280;74321;53.406;8.146;2023-12-28T03:29:45;100659.13;;;7.36;95.63
84190;BME280;74321;53.406;8.146;2023-12-28T03:34:47;100678.81;;;7.55;95.01
84190;BME280;74321;53.406;8.146;2023-12-28T03:39:49;100666.06;;;7.60;94.21
84190;BME280;74321;53.406;8.146;2023-12-28T03:44:51;100634.63;;;7.53;93.45
84190;BME280;74321;53.406;8.146;2023-12-28T03:49:53;100655.03;;;7.55;93.99
84190;BME280;74321;53.406;8.146;2023-12-28T03:54:59;100689.94;;;7.68;93.81
84190;BME280;74321;53.406;8.146;2023-12-28T04:00:01;100682.22;;;7.60;94.55
84190;BME280;74321;53.406;8.146;2023-12-28T04:05:12;100668.81;;;7.89;92.01
84190;BME280;74321;53.406;8.146;2023-12-28T04:10:27;100674.78;;;8.00;91.53
84190;BME280;74321;53.406;8.146;2023-12-28T04:15:30;100579.34;;;7.46;91.37
84190;BME280;74321;53.406;8.146;2023-12-28T04:20:32;100621.09;;;7.76;91.03
84190;BME280;74321;53.406;8.146;2023-12-28T04:25:35;100673.16;;;8.11;90.80
84190;BME280;74321;53.406;8.146;2023-12-28T04:30:37;100592.09;;;7.52;92.33
84190;BME280;74321;53.406;8.146;2023-12-28T04:35:39;100485.66;;;7.01;91.18
84190;BME280;74321;53.406;8.146;2023-12-28T04:40:43;100660.41;;;8.16;91.05
84190;BME280;74321;53.406;8.146;2023-12-28T04:45:45;100598.25;;;8.00;89.63
84190;BME280;74321;53.406;8.146;2023-12-28T04:50:48;100599.91;;;7.87;91.46
84190;BME280;74321;53.406;8.146;2023-12-28T04:55:50;100644.25;;;8.20;89.97
84190;BME280;74321;53.406;8.146;2023-12-28T05:00:52;100662.22;;;8.38;89.47
84190;BME280;74321;53.406;8.146;2023-12-28T05:05:56;100654.53;;;8.40;89.94
84190;BME280;74321;53.406;8.146;2023-12-28T05:10:58;100640.09;;;8.60;86.97
84190;BME280;74321;53.406;8.146;2023-12-28T05:16:01;100650.34;;;8.53;88.22
84190;BME280;74321;53.406;8.146;2023-12-28T05:21:04;100625.63;;;8.56;87.00
84190;BME280;74321;53.406;8.146;2023-12-28T05:26:06;100646.94;;;8.73;86.88
84190;BME280;74321;53.406;8.146;2023-12-28T05:31:08;100626.50;;;8.72;86.91
84190;BME280;74321;53.406;8.146;2023-12-28T10:05:37;100751.59;;;10.34;78.26
84190;BME280;74321;53.406;8.146;2023-12-28T10:10:49;100736.09;;;10.64;76.58
84190;BME280;74321;53.406;8.146;2023-12-28T10:15:59;100747.97;;;10.81;76.04
84190;BME280;74321;53.406;8.146;2023-12-28T10:21:01;100738.56;;;10.83;76.27
84190;BME280;74321;53.406;8.146;2023-12-28T10:26:04;100740.38;;;10.62;77.40
84190;BME280;74321;53.406;8.146;2023-12-28T10:31:08;100737.03;;;10.50;77.30
84190;BME280;74321;53.406;8.146;2023-12-28T10:36:12;100753.22;;;10.58;76.58
84190;BME280;74321;53.406;8.146;2023-12-28T10:41:17;100758.41;;;10.47;77.45
84190;BME280;74321;53.406;8.146;2023-12-28T11:48:30;100740.47;;;10.46;78.08
84190;BME280;74321;53.406;8.146;2023-12-28T11:53:33;100729.34;;;10.48;76.91
84190;BME280;74321;53.406;8.146;2023-12-28T11:58:37;100730.19;;;10.49;77.14
84190;BME280;74321;53.406;8.146;2023-12-28T12:03:39;100734.50;;;10.44;77.05
84190;BME280;74321;53.406;8.146;2023-12-28T12:08:45;100753.25;;;10.49;77.81
84190;BME280;74321;53.406;8.146;2023-12-28T12:13:50;100733.72;;;10.28;78.01
84190;BME280;74321;53.406;8.146;2023-12-28T12:18:53;100739.66;;;10.31;78.73
84190;BME280;74321;53.406;8.146;2023-12-28T12:23:58;100769.50;;;10.46;77.28
84190;BME280;74321;53.406;8.146;2023-12-28T12:29:00;100749.88;;;10.45;79.02
84190;BME280;74321;53.406;8.146;2023-12-28T12:34:03;100752.47;;;10.33;81.68
84190;BME280;74321;53.406;8.146;2023-12-28T12:39:05;100742.28;;;10.01;84.06
84190;BME280;74321;53.406;8.146;2023-12-28T12:44:08;100747.44;;;9.96;84.63
84190;BME280;74321;53.406;8.146;2023-12-28T12:49:12;100753.47;;;9.62;87.59
84190;BME280;74321;53.406;8.146;2023-12-28T12:54:17;100758.56;;;9.17;97.38
84190;BME280;74321;53.406;8.146;2023-12-28T12:59:21;100757.72;;;9.06;100.00
84190;BME280;74321;53.406;8.146;2023-12-28T13:04:23;100762.81;;;9.06;99.41
84190;BME280;74321;53.406;8.146;2023-12-28T13:09:26;100762.81;;;9.18;96.57
84190;BME280;74321;53.406;8.146;2023-12-28T13:14:28;100766.25;;;9.34;94.79
84190;BME280;74321;53.406;8.146;2023-12-28T13:19:31;100756.03;;;9.25;95.84
84190;BME280;74321;53.406;8.146;2023-12-28T13:24:33;100769.66;;;9.22;95.13
84190;BME280;74321;53.406;8.146;2023-12-28T13:29:36;100761.97;;;9.15;96.43
84190;BME280;74321;53.406;8.146;2023-12-28T13:34:38;100756.00;;;9.16;95.54
84190;BME280;74321;53.406;8.146;2023-12-28T13:39:40;100714.22;;;8.82;94.58
84190;BME280;74321;53.406;8.146;2023-12-28T13:44:42;100769.66;;;9.32;91.59
84190;BME280;74321;53.406;8.146;2023-12-28T13:49:45;100772.25;;;9.36;89.82
84190;BME280;74321;53.406;8.146;2023-12-28T13:54:47;100765.44;;;9.35;89.09
84190;BME280;74321;53.406;8.146;2023-12-28T13:59:49;100748.34;;;9.26;88.89
84190;BME280;74321;53.406;8.146;2023-12-28T14:04:51;100763.72;;;9.45;87.90
84190;BME280;74321;53.406;8.146;2023-12-28T14:09:54;100762.00;;;9.54;85.32
84190;BME280;74321;53.406;8.146;2023-12-28T14:14:56;100759.44;;;9.54;84.87
84190;BME280;74321;53.406;8.146;2023-12-28T14:19:58;100747.50;;;9.49;83.97
84190;BME280;74321;53.406;8.146;2023-12-28T14:25:00;100750.06;;;9.43;84.03
84190;BME280;74321;53.406;8.146;2023-12-28T14:30:03;100756.03;;;9.40;84.16
84190;BME280;74321;53.406;8.146;2023-12-28T14:35:08;100721.09;;;9.21;83.62
84190;BME280;74321;53.406;8.146;2023-12-28T14:40:11;100715.13;;;9.29;83.26
84190;BME280;74321;53.406;8.146;2023-12-28T14:45:13;100715.09;;;9.34;81.94
84190;BME280;74321;53.406;8.146;2023-12-28T14:50:15;100749.22;;;9.36;82.99
84190;BME280;74321;53.406;8.146;2023-12-28T14:55:17;100715.97;;;9.22;83.36
84190;BME280;74321;53.406;8.146;2023-12-28T15:00:19;100747.50;;;9.31;83.10
84190;BME280;74321;53.406;8.146;2023-12-28T15:05:21;100724.50;;;9.32;83.99
84190;BME280;74321;53.406;8.146;2023-12-28T15:10:24;100743.25;;;9.60;80.58
84190;BME280;74321;53.406;8.146;2023-12-28T15:15:26;100726.19;;;9.45;82.31
84190;BME280;74321;53.406;8.146;2023-12-28T15:20:28;100727.91;;;9.43;82.25
84190;BME280;74321;53.406;8.146;2023-12-28T15:25:31;100698.06;;;9.33;82.04
84190;BME280;74321;53.406;8.146;2023-12-28T15:30:34;100717.66;;;9.46;82.00
84190;BME280;74321;53.406;8.146;2023-12-28T15:35:39;100716.81;;;9.41;82.19
84190;BME280;74321;53.406;8.146;2023-12-28T15:40:42;100739.84;;;9.46;82.94
84190;BME280;74321;53.406;8.146;2023-12-28T15:45:44;100728.75;;;9.06;89.02
84190;BME280;74321;53.406;8.146;2023-12-28T15:50:46;100719.34;;;8.83;92.49
84190;BME280;74321;53.406;8.146;2023-12-28T15:55:48;100707.34;;;8.50;95.25
84190;BME280;74321;53.406;8.146;2023-12-28T16:01:01;100732.94;;;8.73;94.05
84190;BME280;74321;53.406;8.146;2023-12-28T16:06:03;100695.47;;;8.64;91.74
84190;BME280;74321;53.406;8.146;2023-12-28T16:11:06;100734.59;;;8.60;95.63
84190;BME280;74321;53.406;8.146;2023-12-28T16:16:09;100722.63;;;8.42;98.80
84190;BME280;74321;53.406;8.146;2023-12-28T16:21:13;100731.16;;;8.43;99.02
84190;BME280;74321;53.406;8.146;2023-12-28T16:26:15;100720.97;;;8.44;98.32
84190;BME280;74321;53.406;8.146;2023-12-28T16:31:20;100711.59;;;8.47;96.28
84190;BME280;74321;53.406;8.146;2023-12-28T16:36:22;100707.34;;;8.52;94.56
84190;BME280;74321;53.406;8.146;2023-12-28T16:41:24;100699.72;;;8.65;90.07
84190;BME280;74321;53.406;8.146;2023-12-28T16:46:28;100681.84;;;8.71;87.55
84190;BME280;74321;53.406;8.146;2023-12-28T16:51:30;100697.19;;;8.93;86.25
84190;BME280;74321;53.406;8.146;2023-12-28T16:56:32;100709.97;;;9.00;84.58
84190;BME280;74321;53.406;8.146;2023-12-28T17:01:34;100680.16;;;8.72;86.62
84190;BME280;74321;53.406;8.146;2023-12-28T17:06:36;100688.69;;;8.80;85.52
84190;BME280;74321;53.406;8.146;2023-12-28T17:11:41;100658.03;;;8.69;85.21
84190;BME280;74321;53.406;8.146;2023-12-28T17:16:48;100679.28;;;8.68;85.88
84190;BME280;74321;53.406;8.146;2023-12-28T17:21:52;100669.94;;;8.77;84.73
84190;BME280;74321;53.406;8.146;2023-12-28T17:26:57;100683.56;;;9.00;84.43
84190;BME280;74321;53.406;8.146;2023-12-28T17:32:02;100668.25;;;9.06;83.77
84190;BME280;74321;53.406;8.146;2023-12-28T17:37:04;100663.13;;;8.98;84.19
84190;BME280;74321;53.406;8.146;2023-12-28T17:42:08;100639.28;;;8.89;84.02
84190;BME280;74321;53.406;8.146;2023-12-28T17:47:18;100659.72;;;8.98;84.53
84190;BME280;74321;53.406;8.146;2023-12-28T17:52:24;100635.91;;;9.02;84.09
84190;BME280;74321;53.406;8.146;2023-12-28T17:57:26;100670.81;;;9.27;82.61
84190;BME280;74321;53.406;8.146;2023-12-28T18:02:28;100658.88;;;9.16;83.99
84190;BME280;74321;53.406;8.146;2023-12-28T18:07:30;100634.19;;;9.12;83.61
84190;BME280;74321;53.406;8.146;2023-12-28T18:12:32;100635.88;;;9.11;84.37
84190;BME280;74321;53.406;8.146;2023-12-28T18:17:34;100629.91;;;9.14;84.63
84190;BME280;74321;53.406;8.146;2023-12-28T18:22:37;100619.69;;;9.03;87.44
84190;BME280;74321;53.406;8.146;2023-12-28T18:27:39;100640.16;;;8.77;91.64
84190;BME280;74321;53.406;8.146;2023-12-28T18:32:41;100600.09;;;8.55;93.48
84190;BME280;74321;53.406;8.146;2023-12-28T18:37:43;100607.78;;;8.71;90.62
84190;BME280;74321;53.406;8.146;2023-12-28T18:42:46;100595.00;;;8.81;88.94
84190;BME280;74321;53.406;8.146;2023-12-28T18:47:48;100602.66;;;8.93;88.02
84190;BME280;74321;53.406;8.146;2023-12-28T18:52:50;100614.56;;;9.00;87.17
84190;BME280;74321;53.406;8.146;2023-12-28T18:57:52;100601.81;;;8.97;86.54
84190;BME280;74321;53.406;8.146;2023-12-28T19:02:54;100598.38;;;9.15;84.36
84190;BME280;74321;53.406;8.146;2023-12-28T19:07:58;100584.78;;;8.96;85.92
84190;BME280;74321;53.406;8.146;2023-12-28T19:13:00;100586.47;;;9.06;85.10
84190;BME280;74321;53.406;8.146;2023-12-28T19:18:03;100582.19;;;9.10;83.46
84190;BME280;74321;53.406;8.146;2023-12-28T19:23:05;100554.06;;;9.17;82.47
84190;BME280;74321;53.406;8.146;2023-12-28T19:28:07;100571.91;;;9.33;81.68
84190;BME280;74321;53.406;8.146;2023-12-28T19:33:10;100566.78;;;9.40;80.37
84190;BME280;74321;53.406;8.146;2023-12-28T19:38:12;100543.75;;;9.40;80.04
84190;BME280;74321;53.406;8.146;2023-12-28T19:43:14;100542.06;;;9.41;79.14
84190;BME280;74321;53.406;8.146;2023-12-28T19:48:19;100570.13;;;9.61;78.61
84190;BME280;74321;53.406;8.146;2023-12-28T19:53:21;100550.50;;;9.58;77.98
84190;BME280;74321;53.406;8.146;2023-12-28T19:58:23;100536.09;;;9.43;78.21
84190;BME280;74321;53.406;8.146;2023-12-28T20:03:25;100542.84;;;9.56;77.97
84190;BME280;74321;53.406;8.146;2023-12-28T20:08:28;100548.81;;;9.58;78.14
84190;BME280;74321;53.406;8.146;2023-12-28T20:13:30;100522.41;;;9.53;77.61
84190;BME280;74321;53.406;8.146;2023-12-28T20:18:32;100538.53;;;9.71;76.67
84190;BME280;74321;53.406;8.146;2023-12-28T20:23:35;100529.25;;;9.53;78.10
84190;BME280;74321;53.406;8.146;2023-12-28T20:28:38;100507.06;;;9.50;77.79
84190;BME280;74321;53.406;8.146;2023-12-28T20:33:40;100500.22;;;9.51;77.71
84190;BME280;74321;53.406;8.146;2023-12-28T20:38:43;100496.84;;;9.47;78.23
84190;BME280;74321;53.406;8.146;2023-12-28T20:43:45;100439.03;;;9.14;78.55
84190;BME280;74321;53.406;8.146;2023-12-28T20:48:48;100507.06;;;9.50;78.64
84190;BME280;74321;53.406;8.146;2023-12-28T20:53:50;100497.66;;;9.55;78.35
84190;BME280;74321;53.406;8.146;2023-12-28T20:58:52;100485.72;;;9.51;78.41
84190;BME280;74321;53.406;8.146;2023-12-28T21:03:54;100490.84;;;9.51;78.25
84190;BME280;74321;53.406;8.146;2023-12-28T21:08:56;100480.72;;;9.33;79.55
84190;BME280;74321;53.406;8.146;2023-12-28T21:13:58;100473.06;;;9.25;79.51
84190;BME280;74321;53.406;8.146;2023-12-28T21:19:04;100450.91;;;9.29;79.38
84190;BME280;74321;53.406;8.146;2023-12-28T21:24:07;100461.06;;;9.44;78.62
84190;BME280;74321;53.406;8.146;2023-12-28T21:29:09;100447.56;;;9.15;79.88
84190;BME280;74321;53.406;8.146;2023-12-28T21:34:11;100461.94;;;9.39;80.17
84190;BME280;74321;53.406;8.146;2023-12-28T21:39:14;100470.47;;;9.33;81.27
84190;BME280;74321;53.406;8.146;2023-12-28T21:44:16;100470.47;;;9.35;81.49
84190;BME280;74321;53.406;8.146;2023-12-28T21:49:18;100443.28;;;9.18;82.57
84190;BME280;74321;53.406;8.146;2023-12-28T21:54:21;100459.41;;;9.31;81.08
84190;BME280;74321;53.406;8.146;2023-12-28T21:59:23;100417.72;;;9.17;80.32
84190;BME280;74321;53.406;8.146;2023-12-28T22:04:25;100442.34;;;9.35;81.29
84190;BME280;74321;53.406;8.146;2023-12-28T22:09:27;100446.63;;;9.36;80.40
84190;BME280;74321;53.406;8.146;2023-12-28T22:14:29;100461.97;;;9.33;82.39
84190;BME280;74321;53.406;8.146;2023-12-28T22:19:31;100445.81;;;9.23;82.99
84190;BME280;74321;53.406;8.146;2023-12-28T22:24:34;100460.38;;;9.07;87.43
84190;BME280;74321;53.406;8.146;2023-12-28T22:29:36;100447.56;;;9.09;87.43
84190;BME280;74321;53.406;8.146;2023-12-28T22:34:40;100410.25;;;8.56;91.21
84190;BME280;74321;53.406;8.146;2023-12-28T22:39:42;100439.16;;;8.75;90.83
84190;BME280;74321;53.406;8.146;2023-12-28T22:44:45;100447.69;;;8.72;90.98
84190;BME280;74321;53.406;8.146;2023-12-28T22:49:47;100416.25;;;8.47;95.79
84190;BME280;74321;53.406;8.146;2023-12-28T22:54:49;100435.81;;;8.22;100.00
84190;BME280;74321;53.406;8.146;2023-12-28T22:59:52;100440.03;;;8.34;100.00
84190;BME280;74321;53.406;8.146;2023-12-28T23:04:53;100436.66;;;8.20;100.00
84190;BME280;74321;53.406;8.146;2023-12-28T23:09:57;100436.66;;;8.15;100.00
84190;BME280;74321;53.406;8.146;2023-12-28T23:14:59;100440.06;;;8.17;100.00
84190;BME280;74321;53.406;8.146;2023-12-28T23:20:06;100423.88;;;8.16;100.00
84190;BME280;74321;53.406;8.146;2023-12-28T23:25:08;100438.34;;;8.31;100.00
84190;BME280;74321;53.406;8.146;2023-12-28T23:30:12;100440.06;;;8.25;100.00
84190;BME280;74321;53.406;8.146;2023-12-28T23:35:14;100430.69;;;8.01;100.00
84190;BME280;74321;53.406;8.146;2023-12-28T23:40:20;100423.88;;;7.89;100.00
84190;BME280;74321;53.406;8.146;2023-12-28T23:45:22;100427.28;;;8.00;100.00
84190;BME280;74321;53.406;8.146;2023-12-28T23:50:24;100449.41;;;7.95;100.00
84190;BME280;74321;53.406;8.146;2023-12-28T23:55:26;100428.97;;;7.92;100.00
